Time;durP1;ratioP1;P1;durP2;ratioP2;P2;SDS_P1;SDS_P2;PMS_P1;PMS_P2;Temp;Humidity;BMP_temperature;BMP_pressure;BME280_temperature;BME280_humidity;BME280_pressure;Samples;Min_cycle;Max_cycle;Signal;HPM_P1;HPM_P2
2023/10/01 00:00:52;;;;;;;13.15;6.38;;;15.00;99.90;;;;;;5114506;28;20065;-72
2023/10/01 00:03:18;;;;;;;15.93;6.97;;;15.00;99.90;;;;;;5114936;28;20481;-72
2023/10/01 00:05:43;;;;;;;13.15;6.93;;;15.00;99.90;;;;;;5114820;28;20036;-72
2023/10/01 00:08:12;;;;;;;13.18;7.60;;;15.00;99.90;;;;;;5096353;28;20046;-72
2023/10/01 00:10:41;;;;;;;11.45;6.88;;;15.00;99.90;;;;;;5114029;28;20086;-72
2023/10/01 00:13:07;;;;;;;12.23;7.13;;;15.00;99.90;;;;;;5096325;28;20083;-72
2023/10/01 00:15:32;;;;;;;11.60;6.72;;;15.00;99.90;;;;;;5114871;28;20067;-74
2023/10/01 00:17:58;;;;;;;15.20;8.23;;;14.90;99.90;;;;;;5114701;28;20054;-73
2023/10/01 00:20:25;;;;;;;16.08;6.45;;;14.90;99.90;;;;;;5114362;28;20089;-73
2023/10/01 00:22:54;;;;;;;9.82;6.10;;;14.90;99.90;;;;;;5079591;28;20116;-73
2023/10/01 00:25:22;;;;;;;14.50;6.90;;;15.00;99.90;;;;;;5114412;28;20084;-73
2023/10/01 00:27:48;;;;;;;9.40;6.40;;;14.90;99.90;;;;;;5095961;28;20051;-73
2023/10/01 00:30:14;;;;;;;11.52;6.20;;;15.00;99.90;;;;;;5095974;28;20038;-73
2023/10/01 00:32:41;;;;;;;11.40;6.70;;;14.90;99.90;;;;;;5114344;28;20031;-73
2023/10/01 00:35:07;;;;;;;13.90;7.47;;;14.90;99.90;;;;;;5114433;28;20040;-73
2023/10/01 00:37:33;;;;;;;16.20;7.07;;;14.90;99.90;;;;;;5095968;28;20136;-73
2023/10/01 00:40:00;;;;;;;13.00;7.55;;;14.90;99.90;;;;;;5113806;28;20047;-73
2023/10/01 00:42:29;;;;;;;11.73;6.60;;;14.90;99.90;;;;;;5114101;28;20482;-73
2023/10/01 00:44:57;;;;;;;15.98;6.82;;;14.90;99.90;;;;;;5095749;28;20031;-73
2023/10/01 00:47:25;;;;;;;13.40;7.35;;;14.90;99.90;;;;;;5114088;28;20097;-73
2023/10/01 00:49:54;;;;;;;16.77;8.05;;;14.90;99.90;;;;;;5095198;28;20039;-74
2023/10/01 00:52:20;;;;;;;14.32;7.18;;;14.90;99.90;;;;;;5095701;28;20122;-73
2023/10/01 00:54:46;;;;;;;12.68;6.85;;;14.80;99.90;;;;;;5113865;28;20398;-73
2023/10/01 00:57:15;;;;;;;12.63;7.78;;;14.80;99.90;;;;;;5113840;28;20644;-73
2023/10/01 00:59:43;;;;;;;14.80;7.50;;;14.80;99.90;;;;;;5113623;28;20119;-74
2023/10/01 01:02:09;;;;;;;14.90;7.00;;;14.90;99.90;;;;;;5095300;28;20146;-73
2023/10/01 01:04:42;;;;;;;13.45;6.95;;;14.90;99.90;;;;;;5095295;28;20514;-73
2023/10/01 01:07:14;;;;;;;14.38;8.40;;;14.80;99.90;;;;;;5095229;28;20043;-73
2023/10/01 01:09:43;;;;;;;12.50;7.10;;;14.80;99.90;;;;;;5112924;28;20096;-73
2023/10/01 01:12:09;;;;;;;18.05;9.00;;;14.80;99.90;;;;;;5095302;28;20784;-73
2023/10/01 01:14:36;;;;;;;13.60;7.97;;;14.80;99.90;;;;;;5113521;28;20085;-73
2023/10/01 01:17:04;;;;;;;17.17;7.47;;;14.80;99.90;;;;;;5095455;28;20410;-73
2023/10/01 01:19:30;;;;;;;16.30;7.88;;;14.90;99.90;;;;;;5113123;28;20040;-73
2023/10/01 01:21:56;;;;;;;19.60;8.18;;;14.90;99.90;;;;;;5095292;28;20452;-73
2023/10/01 01:24:24;;;;;;;12.45;7.60;;;14.90;99.90;;;;;;5094119;28;20040;-73
2023/10/01 01:26:51;;;;;;;18.50;7.95;;;14.90;99.90;;;;;;5094797;28;20114;-73
2023/10/01 01:29:29;;;;;;;12.05;7.78;;;14.90;99.90;;;;;;5112937;28;20043;-73
2023/10/01 01:32:08;;;;;;;16.40;8.73;;;14.90;99.90;;;;;;5094962;28;20040;-73
2023/10/01 01:34:37;;;;;;;17.60;8.88;;;14.80;99.90;;;;;;5113097;28;20085;-73
2023/10/01 01:37:06;;;;;;;12.57;7.97;;;14.90;99.90;;;;;;5113050;28;20195;-73
2023/10/01 01:39:48;;;;;;;11.95;8.05;;;14.80;99.90;;;;;;5094406;28;20043;-73
2023/10/01 01:42:19;;;;;;;18.35;8.93;;;14.80;99.90;;;;;;5094585;28;20529;-73
2023/10/01 01:44:47;;;;;;;13.93;9.02;;;14.80;99.90;;;;;;5094486;28;20046;-73
2023/10/01 01:47:15;;;;;;;18.17;8.65;;;14.80;99.90;;;;;;5094429;28;20414;-73
2023/10/01 01:49:43;;;;;;;15.93;9.13;;;14.80;99.90;;;;;;5094285;28;20066;-73
2023/10/01 01:52:10;;;;;;;17.75;9.05;;;14.70;99.90;;;;;;5094534;28;20070;-73
2023/10/01 01:54:39;;;;;;;15.10;9.23;;;14.70;99.90;;;;;;5094477;28;20089;-73
2023/10/01 01:57:13;;;;;;;12.18;8.40;;;14.70;99.90;;;;;;5112402;28;20075;-73
2023/10/01 01:59:41;;;;;;;15.70;9.90;;;14.70;99.90;;;;;;5112106;28;20510;-73
2023/10/01 02:02:09;;;;;;;18.80;9.65;;;14.70;99.90;;;;;;5112638;28;20083;-73
2023/10/01 02:04:58;;;;;;;16.80;9.15;;;14.70;99.90;;;;;;5094400;28;20052;-73
2023/10/01 02:07:24;;;;;;;20.83;9.23;;;14.70;99.90;;;;;;5112456;28;20047;-73
2023/10/01 02:09:51;;;;;;;16.98;10.05;;;14.70;99.90;;;;;;5093658;28;20114;-73
2023/10/01 02:12:23;;;;;;;21.95;9.48;;;14.70;99.90;;;;;;5112541;28;20440;-73
2023/10/01 02:14:54;;;;;;;16.35;9.60;;;14.60;99.90;;;;;;5094191;28;20071;-73
2023/10/01 02:17:22;;;;;;;17.35;9.27;;;14.70;99.90;;;;;;5112543;28;20078;-73
2023/10/01 02:19:48;;;;;;;18.73;9.75;;;14.60;99.90;;;;;;5077053;28;20139;-73
2023/10/01 02:22:16;;;;;;;14.35;9.57;;;14.70;99.90;;;;;;5107934;28;20043;-73
2023/10/01 02:25:00;;;;;;;16.35;9.18;;;14.70;99.90;;;;;;5115007;27;20490;-73
2023/10/01 02:27:28;;;;;;;17.45;9.77;;;14.70;99.90;;;;;;5105444;28;20498;-73
2023/10/01 02:30:16;;;;;;;17.52;9.20;;;14.60;99.90;;;;;;5132350;27;20565;-73
2023/10/01 02:35:35;;;;;;;19.20;9.63;;;14.70;99.90;;;;;;5132698;27;20122;-73
2023/10/01 02:38:36;;;;;;;19.02;9.88;;;14.70;99.90;;;;;;5114162;28;20043;-73
2023/10/01 02:40:57;;;;;;;15.20;9.32;;;14.70;99.90;;;;;;5113822;28;20053;-73
2023/10/01 02:43:25;;;;;;;15.82;8.90;;;14.60;99.90;;;;;;5132581;28;20035;-73
2023/10/01 02:45:51;;;;;;;15.13;10.25;;;14.60;99.90;;;;;;5132095;28;20047;-73
2023/10/01 02:48:16;;;;;;;14.55;10.25;;;14.60;99.90;;;;;;5131845;28;20039;-73
2023/10/01 02:50:52;;;;;;;15.40;9.07;;;14.60;99.90;;;;;;5132246;28;20054;-73
2023/10/01 02:53:22;;;;;;;18.30;11.00;;;14.60;99.90;;;;;;5132448;28;20044;-73
2023/10/01 02:55:51;;;;;;;18.35;9.70;;;14.60;99.90;;;;;;5132300;28;20040;-73
2023/10/01 02:58:19;;;;;;;16.20;10.27;;;14.60;99.90;;;;;;5132538;28;20035;-73
2023/10/01 03:00:45;;;;;;;18.15;10.25;;;14.60;99.90;;;;;;5132391;28;20047;-73
2023/10/01 03:03:18;;;;;;;16.27;9.68;;;14.60;99.90;;;;;;5114064;28;20031;-73
2023/10/01 03:05:47;;;;;;;20.35;11.38;;;14.60;99.90;;;;;;5113900;28;20390;-73
2023/10/01 03:11:02;;;;;;;16.27;9.77;;;14.60;99.90;;;;;;5132265;28;20071;-73
2023/10/01 03:13:30;;;;;;;18.02;10.02;;;14.70;99.90;;;;;;5132450;28;20043;-73
2023/10/01 03:18:46;;;;;;;17.70;10.65;;;14.60;99.90;;;;;;5131906;28;20035;-73
2023/10/01 03:21:19;;;;;;;19.30;10.40;;;14.60;99.90;;;;;;5132054;28;20123;-73
2023/10/01 03:23:51;;;;;;;17.85;10.57;;;14.60;99.90;;;;;;5132032;28;20043;-73
2023/10/01 03:26:17;;;;;;;16.85;10.38;;;14.60;99.90;;;;;;5113427;28;20039;-73
2023/10/01 03:31:29;;;;;;;17.98;11.63;;;14.60;99.90;;;;;;5113659;28;20039;-73
2023/10/01 03:33:54;;;;;;;18.38;10.27;;;14.60;99.90;;;;;;5132071;28;20066;-73
2023/10/01 03:36:25;;;;;;;16.83;9.98;;;14.70;99.90;;;;;;5113626;28;20469;-73
2023/10/01 03:38:57;;;;;;;17.88;10.38;;;14.70;99.90;;;;;;5113318;28;20045;-73
2023/10/01 03:41:24;;;;;;;20.70;11.50;;;14.70;99.90;;;;;;5113519;28;20035;-73
2023/10/01 03:44:08;;;;;;;20.40;11.45;;;14.70;99.90;;;;;;5131861;28;20039;-73
2023/10/01 03:46:45;;;;;;;19.85;11.68;;;14.70;99.90;;;;;;5114864;27;20039;-73
2023/10/01 03:52:01;;;;;;;20.40;11.15;;;14.70;99.90;;;;;;5135604;27;20043;-73
2023/10/01 03:54:52;;;;;;;19.02;11.15;;;14.70;99.90;;;;;;5117241;27;20078;-73
2023/10/01 03:57:19;;;;;;;20.02;10.57;;;14.70;99.90;;;;;;5135271;27;20043;-73
2023/10/01 03:59:53;;;;;;;20.70;11.77;;;14.70;99.90;;;;;;5134895;27;20407;-73
2023/10/01 04:02:42;;;;;;;18.92;11.02;;;14.70;99.90;;;;;;5117245;27;20434;-73
2023/10/01 04:05:21;;;;;;;17.80;11.32;;;14.80;99.90;;;;;;5135322;27;20490;-73
2023/10/01 04:07:50;;;;;;;22.10;11.75;;;14.70;99.90;;;;;;5135496;27;20566;-73
2023/10/01 04:12:54;;;;;;;21.00;11.15;;;14.70;99.90;;;;;;5116960;27;20050;-73
2023/10/01 04:15:30;;;;;;;17.23;10.52;;;14.70;99.90;;;;;;5134950;27;20035;-73
2023/10/01 04:20:47;;;;;;;19.17;11.75;;;14.70;99.90;;;;;;5134634;27;20486;-73
2023/10/01 04:23:29;;;;;;;18.02;9.93;;;14.80;99.90;;;;;;5116617;27;20565;-73
2023/10/01 04:26:06;;;;;;;18.75;9.77;;;14.80;99.90;;;;;;5135057;27;20672;-73
2023/10/01 04:28:36;;;;;;;21.25;9.90;;;14.70;99.90;;;;;;5116503;27;20115;-73
2023/10/01 04:31:09;;;;;;;16.02;10.52;;;14.80;99.90;;;;;;5116551;27;20218;-73
2023/10/01 04:33:42;;;;;;;18.10;10.30;;;14.80;99.90;;;;;;5116434;27;20038;-73
2023/10/01 04:36:11;;;;;;;15.30;9.88;;;14.80;99.90;;;;;;5116464;27;20487;-73
2023/10/01 04:38:37;;;;;;;16.38;10.25;;;14.80;99.90;;;;;;5134484;27;20043;-73
2023/10/01 04:41:03;;;;;;;19.70;10.05;;;14.80;99.90;;;;;;5116050;27;20042;-73
2023/10/01 04:43:34;;;;;;;19.38;9.07;;;14.80;99.90;;;;;;5116302;27;20039;-73
2023/10/01 04:46:03;;;;;;;15.70;10.68;;;14.90;99.90;;;;;;5116346;27;20047;-73
2023/10/01 04:48:28;;;;;;;18.77;10.40;;;14.80;99.90;;;;;;5115684;27;20035;-73
2023/10/01 04:50:55;;;;;;;21.15;10.05;;;14.80;99.90;;;;;;5115820;27;20038;-73
2023/10/01 04:53:22;;;;;;;18.00;9.95;;;14.80;99.90;;;;;;5134481;27;20035;-73
2023/10/01 04:56:01;;;;;;;16.67;9.93;;;14.80;99.90;;;;;;5115921;27;20035;-73
2023/10/01 04:58:32;;;;;;;16.35;10.57;;;14.80;99.90;;;;;;5115651;27;20092;-73
2023/10/01 05:00:58;;;;;;;15.80;9.60;;;14.70;99.90;;;;;;5115323;27;20047;-73
2023/10/01 05:03:40;;;;;;;18.92;9.73;;;14.70;99.90;;;;;;5115772;27;20040;-73
2023/10/01 05:06:08;;;;;;;19.33;10.10;;;14.70;99.90;;;;;;5115780;27;20406;-73
2023/10/01 05:08:38;;;;;;;14.60;9.30;;;14.70;99.90;;;;;;5118114;27;20042;-73
2023/10/01 05:11:11;;;;;;;24.02;10.75;;;14.70;99.90;;;;;;5074853;28;20040;-73
2023/10/01 05:13:42;;;;;;;16.38;9.13;;;14.70;99.90;;;;;;5093381;28;20038;-73
2023/10/01 05:16:12;;;;;;;15.48;9.60;;;14.70;99.90;;;;;;5074850;28;20096;-73
2023/10/01 05:18:38;;;;;;;23.45;10.32;;;14.70;99.90;;;;;;5074760;28;20048;-73
2023/10/01 05:21:12;;;;;;;18.35;9.82;;;14.70;99.90;;;;;;5074709;28;20036;-73
2023/10/01 05:23:43;;;;;;;20.48;10.23;;;14.70;99.90;;;;;;5092918;28;20050;-73
2023/10/01 05:26:10;;;;;;;16.50;9.73;;;14.70;99.90;;;;;;5074720;28;20556;-73
2023/10/01 05:28:36;;;;;;;18.67;9.90;;;14.70;99.90;;;;;;5074374;28;20032;-73
2023/10/01 05:31:08;;;;;;;18.48;9.82;;;14.70;99.90;;;;;;5092664;28;20072;-73
2023/10/01 05:33:34;;;;;;;16.37;9.60;;;14.80;99.90;;;;;;5092781;28;20065;-73
2023/10/01 05:36:04;;;;;;;16.92;10.15;;;14.70;99.90;;;;;;5074664;28;20082;-73
2023/10/01 05:38:34;;;;;;;17.83;10.27;;;14.70;99.90;;;;;;5092305;28;20537;-73
2023/10/01 05:41:09;;;;;;;18.63;10.25;;;14.70;99.90;;;;;;5092345;28;20040;-73
2023/10/01 05:43:50;;;;;;;20.38;11.02;;;14.70;99.90;;;;;;5074648;28;20094;-73
2023/10/01 05:46:17;;;;;;;18.13;10.35;;;14.70;99.90;;;;;;5074178;28;20082;-73
2023/10/01 05:48:43;;;;;;;18.55;10.55;;;14.70;99.90;;;;;;5073977;28;20464;-73
2023/10/01 05:51:15;;;;;;;18.55;9.98;;;14.70;99.90;;;;;;5074140;28;20036;-73
2023/10/01 05:53:42;;;;;;;14.10;9.30;;;14.70;99.90;;;;;;5074204;28;20458;-73
2023/10/01 05:56:15;;;;;;;19.60;10.18;;;14.60;99.90;;;;;;5073785;28;20039;-73
2023/10/01 05:58:41;;;;;;;19.92;10.43;;;14.60;99.90;;;;;;5073494;28;20036;-74
2023/10/01 06:01:16;;;;;;;17.65;10.68;;;14.60;99.90;;;;;;5091584;28;20043;-73
2023/10/01 06:03:49;;;;;;;20.05;11.45;;;14.60;99.90;;;;;;5074038;28;20044;-73
2023/10/01 06:06:24;;;;;;;21.02;11.25;;;14.60;99.90;;;;;;5074074;28;20047;-73
2023/10/01 06:08:58;;;;;;;18.30;9.70;;;14.50;99.90;;;;;;5073200;28;20534;-73
2023/10/01 06:11:41;;;;;;;18.33;9.38;;;14.50;99.90;;;;;;5073683;28;20388;-73
2023/10/01 06:14:08;;;;;;;20.48;10.25;;;14.60;99.90;;;;;;5073999;28;20407;-73
2023/10/01 06:16:39;;;;;;;20.00;11.05;;;14.50;99.90;;;;;;5073766;28;20127;-73
2023/10/01 06:19:11;;;;;;;20.48;10.18;;;14.50;99.90;;;;;;5073686;28;20122;-73
2023/10/01 06:21:39;;;;;;;19.42;9.95;;;14.60;99.90;;;;;;5073699;28;20043;-73
2023/10/01 06:24:07;;;;;;;21.13;10.23;;;14.60;99.90;;;;;;5073763;28;20090;-73
2023/10/01 06:26:50;;;;;;;17.65;9.32;;;14.60;99.90;;;;;;5073674;28;20040;-73
2023/10/01 06:29:16;;;;;;;15.60;10.20;;;14.60;99.90;;;;;;5073161;28;20036;-73
2023/10/01 06:32:00;;;;;;;16.30;10.07;;;14.60;99.90;;;;;;5091894;28;20040;-73
2023/10/01 06:34:29;;;;;;;;;;;14.60;99.90;;;;;;5074433;28;20040;-74
2023/10/01 06:36:59;;;;;;;20.23;10.30;;;14.60;99.90;;;;;;5073872;28;19920;-73
2023/10/01 06:39:38;;;;;;;18.92;9.60;;;14.60;99.90;;;;;;5091456;28;20569;-73
2023/10/01 06:42:20;;;;;;;16.85;10.20;;;14.60;99.90;;;;;;5073609;28;20040;-73
2023/10/01 06:44:50;;;;;;;20.65;10.75;;;14.70;99.90;;;;;;5073583;28;20106;-73
2023/10/01 06:47:16;;;;;;;20.75;10.98;;;14.70;99.90;;;;;;5073650;28;20510;-73
2023/10/01 06:49:57;;;;;;;20.65;11.43;;;14.70;99.90;;;;;;5073213;28;20144;-73
2023/10/01 06:52:32;;;;;;;23.35;10.73;;;14.70;99.90;;;;;;5056735;28;20127;-74
2023/10/01 06:55:01;;;;;;;16.05;9.63;;;14.70;99.90;;;;;;5073850;28;20131;-73
2023/10/01 06:57:33;;;;;;;16.10;9.82;;;14.70;99.90;;;;;;5073248;28;20047;-73
2023/10/01 07:00:04;;;;;;;16.53;9.40;;;14.80;99.90;;;;;;5091446;28;20093;-72
2023/10/01 07:02:31;;;;;;;17.00;9.68;;;14.80;99.90;;;;;;5091318;28;20357;-72
2023/10/01 07:04:58;;;;;;;18.83;10.13;;;14.80;99.90;;;;;;5073247;28;20389;-72
2023/10/01 07:07:31;;;;;;;18.83;9.70;;;14.90;99.90;;;;;;5091415;28;20040;-72
2023/10/01 07:09:56;;;;;;;23.48;9.93;;;14.90;99.90;;;;;;5072723;28;20123;-72
2023/10/01 07:12:23;;;;;;;18.25;9.30;;;14.90;99.90;;;;;;5073508;28;20115;-72
2023/10/01 07:14:53;;;;;;;17.80;10.18;;;14.90;99.90;;;;;;5092339;28;20036;-72
2023/10/01 07:17:25;;;;;;;16.90;9.98;;;14.90;99.90;;;;;;5092891;28;20119;-72
2023/10/01 07:20:00;;;;;;;20.48;9.65;;;14.90;99.90;;;;;;5108323;28;20035;-70
2023/10/01 07:22:34;;;;;;;15.63;9.80;;;15.00;99.90;;;;;;5095607;28;20110;-70
2023/10/01 07:25:00;;;;;;;19.52;10.70;;;15.00;99.90;;;;;;5115486;28;20510;-72
2023/10/01 07:27:27;;;;;;;17.35;9.95;;;15.00;99.90;;;;;;5115660;28;20076;-71
2023/10/01 07:29:54;;;;;;;18.38;9.20;;;15.00;99.90;;;;;;5096865;28;20040;-71
2023/10/01 07:32:22;;;;;;;21.83;10.15;;;15.00;99.90;;;;;;5115603;28;20035;-71
2023/10/01 07:34:55;;;;;;;20.45;9.48;;;15.10;99.90;;;;;;5097240;28;20088;-72
2023/10/01 07:37:25;;;;;;;21.73;9.45;;;15.10;99.90;;;;;;5115466;28;20118;-72
2023/10/01 07:39:59;;;;;;;17.08;9.13;;;15.10;99.90;;;;;;5096519;28;20036;-71
2023/10/01 07:42:26;;;;;;;20.08;8.88;;;15.20;99.90;;;;;;5097364;28;20480;-71
2023/10/01 07:44:53;;;;;;;18.05;9.80;;;15.20;99.90;;;;;;5096564;28;20039;-72
2023/10/01 07:47:28;;;;;;;18.50;8.15;;;15.20;99.90;;;;;;5096465;28;20510;-71
2023/10/01 07:49:57;;;;;;;18.10;9.23;;;15.30;99.90;;;;;;5108732;22;20053;-71
2023/10/01 07:52:23;;;;;;;15.43;8.63;;;15.30;99.90;;;;;;5000051;28;20117;-71
2023/10/01 07:54:49;;;;;;;21.42;9.35;;;15.30;99.90;;;;;;5015575;28;20034;-71
2023/10/01 07:57:27;;;;;;;22.95;8.63;;;15.40;99.90;;;;;;5007930;28;20167;-72
2023/10/01 08:00:00;;;;;;;18.05;8.88;;;15.40;99.90;;;;;;5022279;28;20043;-70
2023/10/01 08:02:28;;;;;;;16.77;8.63;;;15.40;99.90;;;;;;5112235;28;20498;-72
2023/10/01 08:04:57;;;;;;;17.48;8.05;;;15.40;99.90;;;;;;5084733;28;20043;-71
2023/10/01 08:07:30;;;;;;;16.58;8.45;;;15.40;99.90;;;;;;5114586;28;20044;-71
2023/10/01 08:09:59;;;;;;;17.08;8.77;;;15.40;99.90;;;;;;5114264;28;20024;-71
2023/10/01 08:17:54;;;;;;;16.80;8.55;;;15.40;99.90;;;;;;5112008;28;20043;-70
2023/10/01 08:20:30;;;;;;;16.30;8.00;;;15.30;99.90;;;;;;5113895;28;20506;-70
2023/10/01 08:23:22;;;;;;;18.55;7.90;;;15.40;99.90;;;;;;5114618;28;20066;-70
2023/10/01 08:25:51;;;;;;;20.30;8.48;;;15.40;99.90;;;;;;5103775;28;20075;-69
2023/10/01 08:30:49;;;;;;;16.38;8.68;;;15.50;99.90;;;;;;5101724;28;20071;-70
2023/10/01 08:33:22;;;;;;;18.33;8.40;;;15.50;99.90;;;;;;5105311;28;20043;-70
2023/10/01 08:35:56;;;;;;;19.58;8.20;;;15.50;99.90;;;;;;5075513;28;20100;-70
2023/10/01 08:38:26;;;;;;;18.73;8.75;;;15.60;99.90;;;;;;5093601;28;20040;-70
2023/10/01 08:40:59;;;;;;;19.83;8.60;;;15.60;99.90;;;;;;5075147;28;20043;-70
2023/10/01 08:43:30;;;;;;;17.98;9.27;;;15.60;99.90;;;;;;5104196;28;20059;-69
2023/10/01 08:46:00;;;;;;;17.83;8.50;;;15.70;99.90;;;;;;5058951;28;20040;-70
2023/10/01 08:48:35;;;;;;;19.27;8.85;;;15.70;99.90;;;;;;5058785;28;20044;-69
2023/10/01 08:51:11;;;;;;;17.42;8.52;;;15.70;99.90;;;;;;5075121;28;20043;-70
2023/10/01 08:53:42;;;;;;;15.25;7.75;;;15.80;99.90;;;;;;5093282;28;20028;-71
2023/10/01 08:56:13;;;;;;;14.80;7.90;;;15.90;99.90;;;;;;5094707;28;20032;-70
2023/10/01 08:58:48;;;;;;;17.15;8.52;;;15.90;99.90;;;;;;5099522;28;20032;-70
2023/10/01 09:01:21;;;;;;;17.17;9.13;;;16.00;99.90;;;;;;5075082;28;20032;-71
2023/10/01 09:03:55;;;;;;;16.63;8.03;;;16.10;99.90;;;;;;5077998;28;20043;-71
2023/10/01 09:06:30;;;;;;;16.45;8.52;;;16.20;99.90;;;;;;5107574;28;20079;-70
2023/10/01 09:08:59;;;;;;;15.18;6.75;;;16.30;99.90;;;;;;5113739;28;20120;-70
2023/10/01 09:11:35;;;;;;;17.63;7.45;;;16.50;99.90;;;;;;5113479;28;20063;-71
2023/10/01 09:14:18;;;;;;;18.92;8.23;;;16.60;99.90;;;;;;5113693;28;20040;-70
2023/10/01 09:16:58;;;;;;;17.13;7.07;;;16.60;99.90;;;;;;5113631;28;20071;-71
2023/10/01 09:19:42;;;;;;;16.45;7.78;;;16.70;99.90;;;;;;5112618;28;20040;-70
2023/10/01 09:22:15;;;;;;;15.02;7.40;;;16.80;99.90;;;;;;5075410;28;20071;-70
2023/10/01 09:24:43;;;;;;;;;;;16.90;99.90;;;;;;5103183;28;20508;-70
2023/10/01 09:27:19;;;;;;;16.75;7.32;;;17.10;99.90;;;;;;5094873;28;20019;-69
2023/10/01 09:29:57;;;;;;;16.65;8.15;;;17.30;99.90;;;;;;5108844;28;20098;-69
2023/10/01 09:32:49;;;;;;;13.68;6.30;;;17.40;99.90;;;;;;5113179;28;20092;-70
2023/10/01 09:35:30;;;;;;;11.02;5.93;;;17.50;99.90;;;;;;5095865;28;20043;-70
2023/10/01 09:38:12;;;;;;;12.82;7.00;;;17.60;99.90;;;;;;5081710;28;20563;-70
2023/10/01 09:40:42;;;;;;;15.90;8.32;;;17.70;99.90;;;;;;5080824;28;20081;-70
2023/10/01 09:43:30;;;;;;;15.68;7.32;;;17.70;99.90;;;;;;5112684;28;20078;-71
2023/10/01 09:46:06;;;;;;;13.05;6.63;;;17.70;99.90;;;;;;5112770;28;20035;-71
2023/10/01 09:48:33;;;;;;;20.98;7.88;;;17.80;99.90;;;;;;5099371;28;20427;-71
2023/10/01 09:51:18;;;;;;;17.08;6.80;;;17.80;99.90;;;;;;5089275;28;20031;-70
2023/10/01 09:54:00;;;;;;;17.88;8.63;;;18.00;99.90;;;;;;5092169;28;20096;-70
2023/10/01 09:56:26;;;;;;;15.13;7.38;;;17.90;99.90;;;;;;5067709;28;20517;-70
2023/10/01 09:59:07;;;;;;;14.75;7.13;;;17.90;99.90;;;;;;5077799;28;20070;-70
2023/10/01 10:01:35;;;;;;;14.43;6.55;;;18.00;99.90;;;;;;5092209;28;20048;-71
2023/10/01 10:04:03;;;;;;;17.45;6.70;;;18.10;99.90;;;;;;5092136;28;20125;-71
2023/10/01 10:06:29;;;;;;;23.00;8.48;;;18.10;99.90;;;;;;5098695;28;20035;-71
2023/10/01 10:09:06;;;;;;;16.15;7.30;;;18.10;99.90;;;;;;5091074;28;20418;-69
2023/10/01 10:11:39;;;;;;;15.98;6.90;;;18.20;99.90;;;;;;5100681;28;20067;-70
2023/10/01 10:14:25;;;;;;;15.25;6.75;;;18.20;99.90;;;;;;5101799;28;20028;-71
2023/10/01 10:17:18;;;;;;;12.60;6.38;;;18.30;99.90;;;;;;5098508;28;20122;-70
2023/10/01 10:20:15;;;;;;;15.23;6.93;;;18.40;99.90;;;;;;5076824;28;20114;-70
2023/10/01 10:23:13;;;;;;;17.38;6.03;;;18.60;99.90;;;;;;5075647;28;20044;-70
2023/10/01 10:25:41;;;;;;;20.13;7.00;;;18.70;99.90;;;;;;5104333;28;20078;-71
2023/10/01 10:28:09;;;;;;;19.80;7.03;;;18.70;99.90;;;;;;5112230;28;20036;-70
2023/10/01 10:30:40;;;;;;;16.45;6.90;;;18.80;99.90;;;;;;5092586;28;20050;-71
2023/10/01 10:33:15;;;;;;;19.65;6.60;;;18.80;99.90;;;;;;5112094;28;20074;-70
2023/10/01 10:35:48;;;;;;;18.30;6.18;;;18.90;99.90;;;;;;5093915;28;20042;-71
2023/10/01 10:38:51;;;;;;;15.98;6.78;;;18.80;99.90;;;;;;5111848;28;20051;-70
2023/10/01 10:41:17;;;;;;;15.30;6.78;;;18.90;99.90;;;;;;5097390;28;20101;-71
2023/10/01 10:44:08;;;;;;;14.70;6.25;;;18.80;99.90;;;;;;5097310;28;20070;-70
2023/10/01 10:47:01;;;;;;;13.63;7.32;;;18.90;99.90;;;;;;5111823;28;20110;-70
2023/10/01 10:49:52;;;;;;;16.15;7.88;;;19.00;99.90;;;;;;5110443;28;20067;-70
2023/10/01 10:52:31;;;;;;;15.63;7.40;;;19.00;99.90;;;;;;5106919;28;20043;-70
2023/10/01 10:55:15;;;;;;;18.08;6.82;;;18.90;99.90;;;;;;5062604;28;20036;-71
2023/10/01 10:57:51;;;;;;;15.18;6.25;;;18.90;99.90;;;;;;5098160;28;20065;-71
2023/10/01 11:00:24;;;;;;;15.10;5.72;;;18.80;99.90;;;;;;5097687;28;20035;-71
2023/10/01 11:02:56;;;;;;;14.95;6.68;;;18.70;99.90;;;;;;5116081;28;20077;-71
2023/10/01 11:05:29;;;;;;;15.18;6.57;;;18.70;99.90;;;;;;5094651;28;20115;-71
2023/10/01 11:07:58;;;;;;;15.15;6.82;;;18.70;99.90;;;;;;5095579;28;20045;-71
2023/10/01 11:10:45;;;;;;;18.15;6.60;;;18.70;99.90;;;;;;5111637;28;20043;-70
2023/10/01 11:13:13;;;;;;;16.20;6.60;;;18.70;99.90;;;;;;5115108;28;20047;-70
2023/10/01 11:15:39;;;;;;;20.42;6.97;;;18.80;99.90;;;;;;5080620;28;20383;-71
2023/10/01 11:18:09;;;;;;;17.40;6.30;;;18.80;99.90;;;;;;5088453;28;20676;-71
2023/10/01 11:20:36;;;;;;;16.15;6.43;;;18.80;99.90;;;;;;5095779;28;20503;-69
2023/10/01 11:23:02;;;;;;;16.50;7.20;;;18.90;99.90;;;;;;5115710;28;20076;-71
2023/10/01 11:25:27;;;;;;;14.43;6.22;;;18.90;99.90;;;;;;5115625;28;20449;-71
2023/10/01 11:28:04;;;;;;;17.27;7.32;;;18.90;99.90;;;;;;5077493;28;20047;-70
2023/10/01 11:30:42;;;;;;;14.15;6.82;;;19.00;99.90;;;;;;5089807;28;20042;-70
2023/10/01 11:35:41;;;;;;;16.38;6.93;;;19.00;99.90;;;;;;5094410;28;20450;-70
2023/10/01 11:38:19;;;;;;;17.50;6.93;;;19.10;99.90;;;;;;5093511;28;20136;-70
2023/10/01 11:43:58;;;;;;;16.65;7.13;;;19.10;99.90;;;;;;5094200;28;20040;-70
2023/10/01 11:46:32;;;;;;;17.90;6.95;;;19.20;99.90;;;;;;5094155;28;20040;-69
2023/10/01 11:49:08;;;;;;;15.35;6.43;;;19.20;99.90;;;;;;5105493;28;20035;-70
2023/10/01 11:52:02;;;;;;;14.20;6.38;;;19.20;99.90;;;;;;5114669;28;20082;-69
2023/10/01 11:54:44;;;;;;;15.95;6.95;;;19.20;99.90;;;;;;5115073;28;20043;-70
2023/10/01 11:57:23;;;;;;;16.83;6.22;;;19.20;99.90;;;;;;5115118;28;20048;-70
2023/10/01 11:59:57;;;;;;;14.80;6.72;;;19.20;99.90;;;;;;5096419;28;20561;-70
2023/10/01 12:02:26;;;;;;;20.83;7.40;;;19.30;99.90;;;;;;5115203;28;20039;-70
2023/10/01 12:04:57;;;;;;;18.27;7.28;;;19.30;99.90;;;;;;5114213;28;20659;-70
2023/10/01 12:07:26;;;;;;;16.17;6.43;;;19.30;99.90;;;;;;5113928;28;20075;-70
2023/10/01 12:09:53;;;;;;;18.45;6.82;;;19.30;99.90;;;;;;5114309;28;20031;-70
2023/10/01 12:12:36;;;;;;;15.52;7.10;;;19.30;99.90;;;;;;5096810;28;20047;-70
2023/10/01 12:17:50;;;;;;;15.23;7.15;;;19.20;99.90;;;;;;5114496;28;20134;-70
2023/10/01 12:20:22;;;;;;;17.45;6.57;;;19.20;99.90;;;;;;5095571;28;20046;-70
2023/10/01 12:23:10;;;;;;;14.48;6.50;;;19.20;99.90;;;;;;5114648;28;20051;-70
2023/10/01 12:25:50;;;;;;;15.18;6.30;;;19.20;99.90;;;;;;5114540;28;20245;-71
2023/10/01 12:28:23;;;;;;;15.10;6.85;;;19.20;99.90;;;;;;5096460;28;20449;-71
2023/10/01 12:31:01;;;;;;;18.80;7.95;;;19.30;99.90;;;;;;5113824;28;20079;-70
2023/10/01 12:33:41;;;;;;;14.02;6.30;;;19.30;99.90;;;;;;5114455;28;20036;-70
2023/10/01 12:39:03;;;;;;;14.50;6.90;;;19.40;99.90;;;;;;5114005;28;20044;-70
2023/10/01 12:41:29;;;;;;;19.48;7.35;;;19.40;99.90;;;;;;5113933;28;20097;-70
2023/10/01 12:44:24;;;;;;;15.63;8.02;;;19.50;99.90;;;;;;5114338;28;20067;-70
2023/10/01 12:46:51;;;;;;;14.57;6.03;;;19.50;99.90;;;;;;5095879;28;20047;-70
2023/10/01 12:49:17;;;;;;;17.88;6.65;;;19.60;99.90;;;;;;5113591;28;20119;-70
2023/10/01 12:51:48;;;;;;;17.95;6.57;;;19.70;99.90;;;;;;5113880;28;20486;-70
2023/10/01 12:54:25;;;;;;;16.58;7.15;;;19.70;99.90;;;;;;5095946;28;20039;-70
2023/10/01 12:57:09;;;;;;;16.13;7.22;;;19.70;99.90;;;;;;5114179;28;20035;-70
2023/10/01 12:59:44;;;;;;;13.40;6.13;;;19.60;99.90;;;;;;5095135;28;20047;-70
2023/10/01 13:02:28;;;;;;;16.45;7.72;;;19.60;99.90;;;;;;5095702;28;20047;-70
2023/10/01 13:05:16;;;;;;;14.07;6.85;;;19.50;99.90;;;;;;5095326;28;20550;-71
2023/10/01 13:07:45;;;;;;;11.95;6.20;;;19.50;99.90;;;;;;5093728;28;20044;-69
2023/10/01 13:10:11;;;;;;;18.55;7.30;;;19.50;99.90;;;;;;5080961;28;20039;-69
2023/10/01 13:12:56;;;;;;;15.82;6.57;;;19.60;99.90;;;;;;5096398;28;20517;-71
2023/10/01 13:15:33;;;;;;;15.02;7.00;;;19.60;99.90;;;;;;5080273;28;20040;-70
2023/10/01 13:18:00;;;;;;;20.17;6.88;;;19.70;99.90;;;;;;5101753;28;20074;-70
2023/10/01 13:20:28;;;;;;;16.98;7.65;;;19.80;99.90;;;;;;5097135;28;20036;-71
2023/10/01 13:22:59;;;;;;;18.38;6.85;;;19.90;99.90;;;;;;5102008;28;20023;-72
2023/10/01 13:25:28;;;;;;;15.30;7.10;;;20.00;99.90;;;;;;5084407;28;20050;-69
2023/10/01 13:28:06;;;;;;;15.57;6.95;;;20.00;99.90;;;;;;5103903;28;20028;-70
2023/10/01 13:33:19;;;;;;;16.73;7.30;;;20.10;99.90;;;;;;5100033;28;20457;-70
2023/10/01 13:35:57;;;;;;;19.33;7.95;;;20.20;99.90;;;;;;5102687;28;20093;-70
2023/10/01 14:10:54;;;;;;;17.02;6.88;;;20.80;99.90;;;;;;5073395;28;20048;-71
2023/10/01 14:13:35;;;;;;;12.93;5.93;;;20.80;99.90;;;;;;5092120;28;20042;-71
2023/10/01 14:16:17;;;;;;;17.58;6.72;;;20.70;99.90;;;;;;5091771;28;20512;-71